Time;durP1;ratioP1;P1;durP2;ratioP2;P2;SDS_P1;SDS_P2;PMS_P1;PMS_P2;Temp;Humidity;BMP_temperature;BMP_pressure;BME280_temperature;BME280_humidity;BME280_pressure;Samples;Min_cycle;Max_cycle;Signal;HPM_P1;HPM_P2
2023/08/26 00:02:08;;;;;;;2.72;1.17;;;15.90;99.90;;;;;;5027614;28;20049;-61
2023/08/26 00:04:34;;;;;;;4.75;1.15;;;15.90;99.90;;;;;;5027384;28;20073;-61
2023/08/26 00:07:01;;;;;;;3.88;1.00;;;15.90;99.90;;;;;;5027689;28;20069;-60
2023/08/26 00:09:28;;;;;;;5.07;0.98;;;15.90;99.90;;;;;;5026552;28;20500;-60
2023/08/26 00:11:55;;;;;;;6.30;2.25;;;15.80;99.90;;;;;;5029890;28;20046;-61
2023/08/26 00:14:22;;;;;;;4.53;1.00;;;15.80;99.90;;;;;;5031371;28;20045;-61
2023/08/26 00:16:48;;;;;;;6.03;1.35;;;15.70;99.90;;;;;;5031973;28;20049;-61
2023/08/26 00:19:16;;;;;;;7.47;1.80;;;15.70;99.90;;;;;;5030966;28;20483;-61
2023/08/26 00:21:43;;;;;;;2.30;1.08;;;15.60;99.90;;;;;;5031396;28;20132;-62
2023/08/26 00:24:13;;;;;;;5.13;1.17;;;15.70;99.90;;;;;;5031167;28;20124;-60
2023/08/26 00:26:39;;;;;;;2.25;1.15;;;15.60;99.90;;;;;;5031165;28;20052;-60
2023/08/26 00:29:06;;;;;;;5.22;0.98;;;15.50;99.90;;;;;;5031076;28;20493;-61
2023/08/26 00:31:33;;;;;;;4.40;1.30;;;15.40;99.90;;;;;;5031001;28;20461;-61
2023/08/26 00:34:03;;;;;;;3.08;0.95;;;15.40;99.90;;;;;;5029923;28;20507;-61
2023/08/26 00:36:33;;;;;;;4.95;1.33;;;15.40;99.90;;;;;;5031733;28;20047;-63
2023/08/26 00:39:00;;;;;;;5.68;1.17;;;15.40;99.90;;;;;;5013858;28;20091;-61
2023/08/26 00:41:27;;;;;;;1.48;0.95;;;15.40;99.90;;;;;;5031066;28;20570;-62
2023/08/26 00:43:54;;;;;;;2.80;1.55;;;15.40;99.90;;;;;;5028186;28;20099;-61
2023/08/26 00:46:23;;;;;;;4.85;1.67;;;15.40;99.90;;;;;;5030987;28;20076;-60
2023/08/26 00:48:50;;;;;;;3.42;1.38;;;15.40;99.90;;;;;;5030661;28;20041;-61
2023/08/26 00:51:17;;;;;;;4.55;1.27;;;15.40;99.90;;;;;;5013058;28;20547;-61
2023/08/26 00:53:44;;;;;;;6.70;0.98;;;15.30;99.90;;;;;;5013440;28;20049;-61
2023/08/26 00:56:11;;;;;;;1.65;0.88;;;15.30;99.90;;;;;;5012383;28;20045;-61
2023/08/26 00:58:38;;;;;;;3.58;1.25;;;15.30;99.90;;;;;;5030689;28;20056;-61
2023/08/26 01:01:05;;;;;;;5.32;1.00;;;15.20;99.90;;;;;;5012862;28;20068;-61
2023/08/26 01:03:33;;;;;;;1.85;0.93;;;15.20;99.90;;;;;;5028246;28;20115;-61
2023/08/26 01:06:00;;;;;;;5.15;1.33;;;15.20;99.90;;;;;;5029779;28;20053;-60
2023/08/26 01:08:27;;;;;;;4.18;1.17;;;15.20;99.90;;;;;;5030754;28;20064;-61
2023/08/26 01:11:04;;;;;;;3.75;1.30;;;15.20;99.90;;;;;;5030631;28;20111;-63
2023/08/26 01:13:36;;;;;;;5.00;1.30;;;15.20;99.90;;;;;;5012974;28;20119;-61
2023/08/26 01:16:03;;;;;;;4.70;1.52;;;15.20;99.90;;;;;;5027888;28;20046;-61
2023/08/26 01:18:30;;;;;;;6.90;1.42;;;15.10;99.90;;;;;;5012636;28;20463;-62
2023/08/26 01:20:57;;;;;;;2.22;1.52;;;15.10;99.90;;;;;;5030051;28;20045;-61
2023/08/26 01:23:37;;;;;;;3.03;1.10;;;15.10;99.90;;;;;;5011505;28;20115;-60
2023/08/26 01:26:04;;;;;;;2.55;0.98;;;15.00;99.90;;;;;;4996868;28;20053;-60
2023/08/26 01:28:31;;;;;;;4.15;0.90;;;15.00;99.90;;;;;;5030059;28;20045;-61
2023/08/26 01:30:59;;;;;;;4.53;1.45;;;15.00;99.90;;;;;;5030300;28;20073;-61
2023/08/26 01:33:28;;;;;;;2.30;1.20;;;14.90;99.90;;;;;;4996599;28;20554;-61
2023/08/26 01:35:58;;;;;;;2.55;1.17;;;14.90;99.90;;;;;;5029562;28;20085;-60
2023/08/26 01:38:25;;;;;;;2.13;1.23;;;14.80;99.90;;;;;;4996255;28;20064;-61
2023/08/26 01:40:56;;;;;;;7.63;1.65;;;14.80;99.90;;;;;;5029924;28;20049;-60
2023/08/26 01:43:23;;;;;;;4.70;1.40;;;14.80;99.90;;;;;;5029981;28;20052;-61
2023/08/26 01:45:53;;;;;;;7.88;1.70;;;14.80;99.90;;;;;;5011422;28;20054;-61
2023/08/26 01:48:20;;;;;;;7.72;1.75;;;14.70;99.90;;;;;;5029520;28;20056;-61
2023/08/26 01:50:47;;;;;;;3.63;1.70;;;14.70;99.90;;;;;;5029534;28;20046;-60
2023/08/26 01:53:14;;;;;;;3.72;1.40;;;14.80;99.90;;;;;;5012339;28;20046;-60
2023/08/26 01:55:41;;;;;;;2.22;1.27;;;14.70;99.90;;;;;;5028790;28;20053;-62
2023/08/26 01:58:08;;;;;;;3.92;1.70;;;14.70;99.90;;;;;;5029606;28;20136;-60
2023/08/26 02:00:35;;;;;;;4.68;1.70;;;14.70;99.90;;;;;;5019404;28;20499;-61
2023/08/26 02:03:02;;;;;;;11.85;2.10;;;14.70;99.90;;;;;;5027436;28;20528;-61
2023/08/26 02:05:29;;;;;;;8.02;1.52;;;14.70;99.90;;;;;;5029130;28;20088;-58
2023/08/26 02:07:56;;;;;;;3.40;2.05;;;14.70;99.90;;;;;;5029469;28;20115;-60
2023/08/26 02:10:23;;;;;;;5.72;1.85;;;14.70;99.90;;;;;;5029597;28;20045;-61
2023/08/26 02:12:49;;;;;;;4.70;1.23;;;14.70;99.90;;;;;;5031290;28;20045;-60
2023/08/26 02:15:16;;;;;;;4.95;1.80;;;14.60;99.90;;;;;;5032400;28;20053;-62
2023/08/26 02:17:43;;;;;;;4.88;1.50;;;14.70;99.90;;;;;;5029604;28;20045;-61
2023/08/26 02:20:10;;;;;;;4.63;1.70;;;14.70;99.90;;;;;;5029618;28;20045;-61
2023/08/26 02:22:37;;;;;;;3.92;2.00;;;14.60;99.90;;;;;;5019851;28;20057;-61
2023/08/26 02:25:05;;;;;;;2.58;1.20;;;14.60;99.90;;;;;;5011688;28;20046;-61
2023/08/26 02:27:32;;;;;;;4.40;1.45;;;14.60;99.90;;;;;;5023113;28;20041;-60
2023/08/26 02:29:58;;;;;;;4.80;1.55;;;14.50;99.90;;;;;;5029229;28;20084;-61
2023/08/26 02:32:25;;;;;;;3.30;1.35;;;14.50;99.90;;;;;;5029020;28;20045;-61
2023/08/26 02:34:52;;;;;;;8.68;2.50;;;14.50;99.90;;;;;;5028744;28;20041;-61
2023/08/26 02:37:19;;;;;;;3.58;1.55;;;14.50;99.90;;;;;;5029053;28;20049;-60
2023/08/26 02:39:46;;;;;;;12.50;2.33;;;14.60;99.90;;;;;;5028733;28;20056;-61
2023/08/26 02:42:13;;;;;;;7.25;2.17;;;14.60;99.90;;;;;;5028978;28;20452;-61
2023/08/26 02:44:40;;;;;;;4.57;1.48;;;14.60;99.90;;;;;;5028531;28;20538;-60
2023/08/26 02:47:06;;;;;;;6.30;2.15;;;14.50;99.90;;;;;;5018115;28;20050;-60
2023/08/26 02:49:33;;;;;;;4.85;1.58;;;14.50;99.90;;;;;;5028048;28;20501;-61
2023/08/26 02:52:00;;;;;;;4.53;1.90;;;14.40;99.90;;;;;;5029066;28;20057;-60
2023/08/26 02:54:27;;;;;;;2.58;1.15;;;14.30;99.90;;;;;;5025695;28;20046;-58
2023/08/26 02:56:54;;;;;;;7.07;1.70;;;14.40;99.90;;;;;;5028962;28;20091;-61
2023/08/26 02:59:21;;;;;;;3.72;1.55;;;14.40;99.90;;;;;;5028353;28;20056;-61
2023/08/26 03:01:58;;;;;;;5.57;1.65;;;14.40;99.90;;;;;;5028661;28;20041;-60
2023/08/26 03:04:25;;;;;;;4.85;1.80;;;14.40;99.90;;;;;;5028406;28;20487;-60
2023/08/26 03:06:52;;;;;;;13.32;1.92;;;14.30;99.90;;;;;;5028140;28;20058;-63
2023/08/26 03:09:19;;;;;;;5.20;1.67;;;14.30;99.90;;;;;;5027987;28;20562;-59
2023/08/26 03:11:46;;;;;;;6.97;1.95;;;14.20;99.90;;;;;;5028545;28;20050;-60
2023/08/26 03:14:13;;;;;;;3.20;1.75;;;14.20;99.90;;;;;;5026445;28;20049;-60
2023/08/26 03:16:40;;;;;;;3.92;1.48;;;14.20;99.90;;;;;;5028213;28;20053;-60
2023/08/26 03:19:07;;;;;;;4.68;1.80;;;14.20;99.90;;;;;;5027706;28;20046;-61
2023/08/26 03:21:34;;;;;;;6.60;1.70;;;14.20;99.90;;;;;;5027907;28;20041;-61
2023/08/26 03:24:01;;;;;;;5.40;1.73;;;14.20;99.90;;;;;;5027995;28;20038;-60
2023/08/26 03:26:27;;;;;;;10.23;1.95;;;14.20;99.90;;;;;;5028086;28;20037;-60
2023/08/26 03:28:54;;;;;;;5.32;2.35;;;14.20;99.90;;;;;;5027940;28;20045;-61
2023/08/26 03:31:21;;;;;;;3.17;1.50;;;14.20;99.90;;;;;;5028447;28;20067;-60
2023/08/26 03:33:48;;;;;;;3.85;1.58;;;14.20;99.90;;;;;;5028206;28;20051;-61
2023/08/26 03:36:15;;;;;;;11.02;1.70;;;14.20;99.90;;;;;;5027504;28;20168;-61
2023/08/26 03:38:42;;;;;;;6.00;2.33;;;14.20;99.90;;;;;;5027943;28;20518;-61
2023/08/26 03:41:09;;;;;;;6.78;2.05;;;14.20;99.90;;;;;;5027677;28;20496;-60
2023/08/26 03:43:36;;;;;;;3.10;1.50;;;14.20;99.90;;;;;;5010818;28;20068;-61
2023/08/26 03:46:04;;;;;;;9.15;1.90;;;14.10;99.90;;;;;;5015278;28;20045;-60
2023/08/26 03:48:31;;;;;;;4.20;1.70;;;14.20;99.90;;;;;;5032334;28;20049;-62
2023/08/26 03:50:57;;;;;;;8.70;1.98;;;14.20;99.90;;;;;;5031834;28;20041;-61
2023/08/26 03:53:25;;;;;;;4.15;1.58;;;14.10;99.90;;;;;;5014510;28;20053;-61
2023/08/26 03:55:51;;;;;;;4.32;1.75;;;14.10;99.90;;;;;;5014393;28;20469;-61
2023/08/26 03:58:18;;;;;;;3.63;1.70;;;14.00;99.90;;;;;;5032100;28;20287;-61
2023/08/26 04:00:45;;;;;;;4.35;1.27;;;14.00;99.90;;;;;;5031956;28;20099;-62
2023/08/26 04:03:12;;;;;;;7.35;1.98;;;13.90;99.90;;;;;;5031682;28;20049;-60
2023/08/26 04:05:39;;;;;;;6.10;1.90;;;13.90;99.90;;;;;;5028711;28;20111;-61
2023/08/26 04:08:06;;;;;;;9.48;2.00;;;13.90;99.90;;;;;;5031903;28;20084;-62
2023/08/26 04:10:32;;;;;;;6.10;1.52;;;13.90;99.90;;;;;;5031958;28;20045;-60
2023/08/26 04:13:19;;;;;;;2.72;1.20;;;13.90;99.90;;;;;;5030318;28;20156;-60
2023/08/26 04:15:46;;;;;;;5.32;1.58;;;13.90;99.90;;;;;;5031136;28;20050;-62
2023/08/26 04:18:13;;;;;;;2.75;1.55;;;13.90;99.90;;;;;;5031822;28;20485;-60
2023/08/26 04:20:42;;;;;;;3.92;1.73;;;13.90;99.90;;;;;;5031209;28;20459;-60
2023/08/26 04:23:09;;;;;;;6.15;1.75;;;13.80;99.90;;;;;;5030442;28;20053;-61
2023/08/26 04:25:37;;;;;;;4.82;2.30;;;13.80;99.90;;;;;;5030061;28;20558;-60
2023/08/26 04:28:04;;;;;;;5.05;1.35;;;13.80;99.90;;;;;;5013991;28;20045;-61
2023/08/26 04:30:31;;;;;;;4.68;1.63;;;13.70;99.90;;;;;;5031430;28;20119;-62
2023/08/26 04:32:58;;;;;;;3.45;1.45;;;13.70;99.90;;;;;;5031325;28;20049;-60
2023/08/26 04:35:25;;;;;;;2.65;1.40;;;13.70;99.90;;;;;;5031211;28;20147;-61
2023/08/26 04:37:54;;;;;;;9.40;1.80;;;13.70;99.90;;;;;;5031083;28;20053;-61
2023/08/26 04:40:22;;;;;;;9.13;2.30;;;13.70;99.90;;;;;;5030531;28;20041;-61
2023/08/26 04:42:53;;;;;;;5.28;1.75;;;13.70;99.90;;;;;;5030524;28;20431;-62
2023/08/26 04:45:20;;;;;;;2.55;1.50;;;13.70;99.90;;;;;;5030766;28;20046;-60
2023/08/26 04:47:47;;;;;;;4.60;1.50;;;13.60;99.90;;;;;;5032831;28;20052;-62
2023/08/26 04:50:14;;;;;;;7.53;1.70;;;13.60;99.90;;;;;;5031983;28;20105;-60
2023/08/26 04:52:42;;;;;;;2.58;1.70;;;13.50;99.90;;;;;;5007056;28;20096;-61
2023/08/26 04:55:09;;;;;;;3.65;1.77;;;13.50;99.90;;;;;;5026005;28;20171;-62
2023/08/26 04:57:36;;;;;;;3.83;2.42;;;13.50;99.90;;;;;;5030428;28;20068;-61
2023/08/26 05:00:09;;;;;;;5.72;1.52;;;13.50;99.90;;;;;;5018306;28;20056;-60
2023/08/26 05:02:39;;;;;;;3.35;1.65;;;13.50;99.90;;;;;;5030621;28;20076;-60
2023/08/26 05:05:06;;;;;;;6.15;1.58;;;13.40;99.90;;;;;;5030088;28;20516;-61
2023/08/26 05:07:33;;;;;;;2.03;1.45;;;13.50;99.90;;;;;;5030126;28;20297;-62
2023/08/26 05:10:01;;;;;;;4.65;1.45;;;13.50;99.90;;;;;;5031012;28;20045;-60
2023/08/26 05:12:28;;;;;;;5.93;1.65;;;13.50;99.90;;;;;;5030555;28;20053;-61
2023/08/26 05:14:55;;;;;;;4.80;1.67;;;13.40;99.90;;;;;;5030419;28;20511;-62
2023/08/26 05:17:21;;;;;;;2.53;1.40;;;13.40;99.90;;;;;;5030589;28;20077;-61
2023/08/26 05:19:48;;;;;;;4.13;1.60;;;13.40;99.90;;;;;;5029495;28;20045;-61
2023/08/26 05:22:15;;;;;;;6.45;2.00;;;13.40;99.90;;;;;;5030524;28;20590;-60
2023/08/26 05:24:43;;;;;;;5.10;1.80;;;13.40;99.90;;;;;;5029905;28;20065;-62
2023/08/26 05:27:10;;;;;;;5.47;1.65;;;13.50;99.90;;;;;;5030500;28;20576;-61
2023/08/26 05:29:37;;;;;;;6.25;1.63;;;13.50;99.90;;;;;;5029881;28;20069;-61
2023/08/26 05:32:04;;;;;;;2.47;2.10;;;13.50;99.90;;;;;;5030700;28;20041;-61
2023/08/26 05:34:31;;;;;;;6.30;1.88;;;13.50;99.90;;;;;;5029953;28;20127;-62
2023/08/26 05:36:58;;;;;;;4.80;1.85;;;13.40;99.90;;;;;;5023260;28;20045;-62
2023/08/26 05:39:25;;;;;;;5.22;1.90;;;13.40;99.90;;;;;;5029838;28;20247;-61
2023/08/26 05:41:51;;;;;;;5.28;1.73;;;13.40;99.90;;;;;;5030265;28;20131;-62
2023/08/26 05:44:18;;;;;;;6.18;1.90;;;13.40;99.90;;;;;;5028859;28;20049;-62
2023/08/26 05:46:45;;;;;;;4.28;1.92;;;13.40;99.90;;;;;;5030058;28;20049;-62
2023/08/26 05:49:12;;;;;;;2.28;1.60;;;13.50;99.90;;;;;;5022987;28;20498;-61
2023/08/26 05:51:38;;;;;;;4.75;1.70;;;13.50;99.90;;;;;;5028271;28;20321;-61
2023/08/26 05:54:05;;;;;;;6.07;1.98;;;13.50;99.90;;;;;;5027725;28;20104;-58
2023/08/26 05:56:32;;;;;;;3.13;1.85;;;13.50;99.90;;;;;;5029721;28;20395;-61
2023/08/26 05:58:59;;;;;;;2.67;1.92;;;13.50;99.90;;;;;;5021475;28;20064;-62
2023/08/26 06:01:26;;;;;;;5.32;2.13;;;13.60;99.90;;;;;;5027392;28;20262;-61
2023/08/26 06:03:54;;;;;;;4.18;2.35;;;13.60;99.90;;;;;;5010068;28;20046;-60
2023/08/26 06:06:21;;;;;;;4.47;2.05;;;13.70;99.90;;;;;;5029108;28;20053;-62
2023/08/26 06:08:48;;;;;;;2.92;2.05;;;13.70;99.90;;;;;;5022471;28;20056;-62
2023/08/26 06:11:15;;;;;;;7.65;2.00;;;13.60;99.90;;;;;;5028905;28;20261;-62
2023/08/26 06:13:41;;;;;;;5.45;2.25;;;13.70;99.90;;;;;;5029554;28;20042;-61
2023/08/26 06:16:08;;;;;;;4.30;1.95;;;13.70;99.90;;;;;;5029021;28;20247;-61
2023/08/26 06:18:35;;;;;;;3.65;2.40;;;13.70;99.90;;;;;;5029272;28;20063;-60
2023/08/26 06:21:02;;;;;;;2.92;2.00;;;13.80;99.90;;;;;;5028893;28;20073;-61
2023/08/26 06:23:29;;;;;;;4.93;2.17;;;13.80;99.90;;;;;;5029138;28;20053;-60
2023/08/26 06:25:56;;;;;;;4.28;2.90;;;13.90;99.90;;;;;;5028702;28;20099;-60
2023/08/26 06:28:23;;;;;;;3.30;2.00;;;13.90;99.90;;;;;;5029083;28;20049;-60
2023/08/26 06:30:50;;;;;;;7.25;2.17;;;14.00;99.90;;;;;;5011221;28;20505;-61
2023/08/26 06:33:17;;;;;;;4.53;1.85;;;14.00;99.90;;;;;;5029028;28;20381;-62
2023/08/26 06:35:49;;;;;;;4.22;2.10;;;14.00;99.90;;;;;;5028598;28;20056;-61
2023/08/26 06:38:16;;;;;;;3.55;1.65;;;14.10;99.90;;;;;;5028897;28;20078;-63
2023/08/26 06:40:43;;;;;;;3.22;1.85;;;14.20;99.90;;;;;;5028764;28;20045;-62
2023/08/26 06:43:10;;;;;;;9.55;2.70;;;14.10;99.90;;;;;;5028609;28;20053;-61
2023/08/26 06:45:37;;;;;;;3.58;2.10;;;14.20;99.90;;;;;;5028267;28;20100;-62
2023/08/26 06:48:04;;;;;;;4.95;1.98;;;14.30;99.90;;;;;;5028490;28;20041;-61
2023/08/26 06:50:34;;;;;;;2.95;1.88;;;14.30;99.90;;;;;;5028226;28;20053;-59
2023/08/26 06:53:01;;;;;;;6.38;1.70;;;14.40;99.90;;;;;;5028198;28;20077;-61
2023/08/26 06:55:28;;;;;;;4.45;1.92;;;14.40;99.90;;;;;;5025028;28;20045;-61
2023/08/26 06:57:54;;;;;;;2.67;1.60;;;14.50;99.90;;;;;;5028278;28;20046;-62
2023/08/26 07:00:22;;;;;;;2.30;1.98;;;14.50;99.90;;;;;;5028004;28;20049;-61
2023/08/26 07:02:48;;;;;;;2.92;1.67;;;14.60;99.90;;;;;;5027287;28;20138;-61
2023/08/26 07:05:15;;;;;;;2.60;1.67;;;14.70;99.90;;;;;;5028104;28;20270;-61
2023/08/26 07:07:42;;;;;;;3.72;2.00;;;14.80;99.90;;;;;;5028624;28;20049;-61
2023/08/26 07:10:09;;;;;;;4.15;2.10;;;14.80;99.90;;;;;;5028151;28;20049;-61
2023/08/26 07:12:36;;;;;;;3.42;1.65;;;14.90;99.90;;;;;;5028361;28;20049;-61
2023/08/26 07:15:04;;;;;;;5.22;1.73;;;15.00;99.90;;;;;;5028333;28;20172;-61
2023/08/26 07:17:31;;;;;;;2.53;1.77;;;15.10;99.90;;;;;;5027976;28;20045;-62
2023/08/26 07:19:58;;;;;;;6.78;2.30;;;15.20;99.90;;;;;;5027873;28;20099;-61
2023/08/26 07:22:24;;;;;;;2.92;2.05;;;15.30;99.90;;;;;;5027975;28;20091;-61
2023/08/26 07:24:56;;;;;;;3.13;2.22;;;15.30;99.90;;;;;;5028472;28;20046;-60
2023/08/26 07:27:23;;;;;;;3.90;2.53;;;15.30;99.90;;;;;;5030922;28;20050;-60
2023/08/26 07:29:50;;;;;;;4.70;2.35;;;15.40;99.90;;;;;;5030811;28;20050;-61
2023/08/26 07:32:20;;;;;;;4.75;2.70;;;15.50;99.90;;;;;;5028207;28;20033;-64
2023/08/26 07:34:46;;;;;;;4.65;2.38;;;15.60;99.90;;;;;;5027849;28;20103;-62
2023/08/26 07:37:13;;;;;;;3.60;2.42;;;15.60;99.90;;;;;;5027758;28;20099;-62
2023/08/26 07:39:40;;;;;;;3.40;2.38;;;15.70;99.90;;;;;;5027869;28;20148;-62
2023/08/26 07:42:07;;;;;;;3.08;2.35;;;15.70;99.90;;;;;;5027661;28;20227;-62
2023/08/26 07:44:34;;;;;;;6.35;2.90;;;15.80;99.90;;;;;;5027687;28;20049;-62
2023/08/26 07:47:00;;;;;;;4.03;3.00;;;15.80;99.90;;;;;;5027832;28;20037;-63
2023/08/26 07:49:27;;;;;;;4.03;2.53;;;15.90;99.90;;;;;;5009453;28;20049;-61
2023/08/26 07:51:54;;;;;;;4.38;2.80;;;16.00;99.90;;;;;;5027835;28;20042;-61
2023/08/26 07:54:21;;;;;;;6.07;2.90;;;16.10;99.90;;;;;;5027658;28;20137;-61
2023/08/26 07:56:48;;;;;;;5.38;2.80;;;16.10;99.90;;;;;;5027483;28;20053;-61
2023/08/26 07:59:15;;;;;;;5.22;2.65;;;16.10;99.90;;;;;;5027797;28;20055;-61
2023/08/26 08:01:41;;;;;;;4.03;2.60;;;16.10;99.90;;;;;;5027377;28;20555;-61
2023/08/26 08:04:08;;;;;;;7.70;2.33;;;16.10;99.90;;;;;;5027471;28;20126;-61
2023/08/26 08:06:35;;;;;;;6.28;3.15;;;16.20;99.90;;;;;;5027539;28;20417;-61
2023/08/26 08:09:02;;;;;;;7.53;3.15;;;16.20;99.90;;;;;;5027560;28;20489;-61
2023/08/26 08:11:29;;;;;;;5.28;2.53;;;16.20;99.90;;;;;;5027636;28;20099;-61
2023/08/26 08:13:55;;;;;;;4.30;1.90;;;16.30;99.90;;;;;;5027432;28;20147;-60
2023/08/26 08:16:22;;;;;;;2.88;1.95;;;16.30;99.90;;;;;;5027608;28;20488;-62
2023/08/26 08:18:49;;;;;;;2.95;1.88;;;16.30;99.90;;;;;;5027092;28;20076;-62
2023/08/26 08:21:16;;;;;;;4.40;1.70;;;16.40;99.90;;;;;;5027344;28;20041;-61
2023/08/26 08:23:43;;;;;;;6.10;1.92;;;16.50;99.90;;;;;;5026432;28;20046;-60
2023/08/26 08:26:11;;;;;;;4.78;1.95;;;16.60;99.90;;;;;;5026448;28;20080;-62
2023/08/26 08:28:38;;;;;;;6.72;1.65;;;16.70;99.90;;;;;;5027224;28;20080;-62
2023/08/26 08:31:05;;;;;;;2.45;1.65;;;16.70;99.90;;;;;;5026972;28;20045;-61
2023/08/26 08:33:33;;;;;;;3.63;1.92;;;16.70;99.90;;;;;;5029953;28;20045;-62
2023/08/26 08:36:00;;;;;;;6.90;1.70;;;16.70;99.90;;;;;;5017142;28;20045;-62
2023/08/26 08:38:27;;;;;;;6.13;1.77;;;16.70;99.90;;;;;;5031024;28;20045;-61
2023/08/26 08:40:54;;;;;;;4.50;1.40;;;16.70;99.90;;;;;;5030104;28;20060;-62
2023/08/26 08:43:21;;;;;;;2.22;1.13;;;16.90;99.90;;;;;;5030224;28;20042;-62
2023/08/26 08:45:49;;;;;;;1.33;1.23;;;17.00;99.90;;;;;;5013091;28;20052;-62
2023/08/26 08:48:17;;;;;;;3.00;1.30;;;17.20;99.90;;;;;;5012914;28;20046;-61
2023/08/26 08:50:45;;;;;;;1.40;1.10;;;17.30;99.90;;;;;;5013035;28;20188;-61
2023/08/26 08:53:12;;;;;;;1.48;1.10;;;17.30;99.90;;;;;;5030815;28;20077;-62
2023/08/26 08:55:39;;;;;;;3.78;1.20;;;17.30;99.90;;;;;;5013122;28;20163;-61
2023/08/26 08:58:06;;;;;;;3.85;1.10;;;17.30;99.90;;;;;;5013269;28;20049;-61
2023/08/26 09:00:32;;;;;;;5.10;1.38;;;17.30;99.90;;;;;;5030597;28;20313;-62
2023/08/26 09:02:59;;;;;;;2.13;1.02;;;17.40;99.90;;;;;;4995622;28;20038;-62
2023/08/26 09:05:26;;;;;;;2.63;1.13;;;17.50;99.90;;;;;;5011942;28;20060;-61
2023/08/26 09:07:53;;;;;;;1.67;0.85;;;17.60;99.90;;;;;;4996560;28;20041;-60
2023/08/26 09:10:20;;;;;;;1.50;0.90;;;17.60;99.90;;;;;;5012531;28;20041;-62
2023/08/26 09:12:47;;;;;;;4.70;1.20;;;17.70;99.90;;;;;;5012843;28;20107;-62
2023/08/26 09:15:14;;;;;;;3.53;0.90;;;17.80;99.90;;;;;;5027601;28;20496;-61
2023/08/26 09:17:45;;;;;;;2.05;1.30;;;17.80;99.90;;;;;;5030334;28;20057;-62
2023/08/26 09:20:12;;;;;;;2.65;1.30;;;17.80;99.90;;;;;;5012942;28;20083;-62
2023/08/26 09:22:39;;;;;;;1.60;1.33;;;18.00;99.90;;;;;;5029886;28;20401;-62
2023/08/26 09:25:06;;;;;;;2.70;1.23;;;18.10;99.90;;;;;;5030098;28;20057;-63
2023/08/26 09:27:34;;;;;;;2.05;0.80;;;18.30;99.90;;;;;;5029424;28;20056;-62
2023/08/26 09:30:02;;;;;;;1.20;0.68;;;18.30;99.90;;;;;;5028926;28;20068;-62
2023/08/26 09:32:43;;;;;;;1.17;0.70;;;18.20;99.90;;;;;;5029872;28;20045;-62
2023/08/26 09:35:14;;;;;;;2.10;0.88;;;18.20;99.90;;;;;;5029782;28;20057;-62
2023/08/26 09:37:47;;;;;;;0.77;0.45;;;18.20;99.90;;;;;;5029655;28;20495;-63
2023/08/26 09:40:15;;;;;;;4.25;0.70;;;18.10;99.90;;;;;;5029830;28;20045;-63
2023/08/26 09:42:42;;;;;;;4.00;0.80;;;18.20;99.90;;;;;;5029411;28;20393;-63
2023/08/26 09:45:10;;;;;;;1.55;0.52;;;18.20;99.90;;;;;;5024690;28;20057;-63
2023/08/26 09:47:37;;;;;;;2.75;1.08;;;18.00;99.90;;;;;;5027633;28;20672;-61
2023/08/26 09:50:06;;;;;;;4.00;1.25;;;17.90;99.90;;;;;;5029192;28;20072;-62
2023/08/26 09:52:47;;;;;;;3.60;0.98;;;17.80;99.90;;;;;;5029250;28;20103;-63
2023/08/26 09:55:15;;;;;;;2.00;0.70;;;17.80;99.90;;;;;;5029739;28;20049;-62
2023/08/26 09:57:43;;;;;;;4.45;0.90;;;17.70;99.90;;;;;;5029351;28;20416;-63
2023/08/26 10:00:10;;;;;;;1.92;0.80;;;17.60;99.90;;;;;;5029149;28;20045;-61
2023/08/26 10:02:38;;;;;;;2.28;1.10;;;17.50;99.90;;;;;;5029226;28;20444;-62
2023/08/26 10:05:09;;;;;;;2.35;0.80;;;17.60;99.90;;;;;;5029333;28;20128;-62
2023/08/26 10:07:37;;;;;;;2.70;0.75;;;18.00;99.90;;;;;;5012035;28;20049;-64
2023/08/26 10:10:33;;;;;;;0.80;0.60;;;18.50;99.90;;;;;;5032550;28;20045;-62
2023/08/26 10:13:02;;;;;;;4.88;0.70;;;18.60;99.90;;;;;;5018926;28;20551;-61
2023/08/26 10:15:30;;;;;;;1.88;0.60;;;18.50;99.90;;;;;;4996281;28;20049;-61
2023/08/26 10:17:57;;;;;;;1.40;0.75;;;18.30;99.90;;;;;;5022494;28;20489;-61
2023/08/26 10:20:24;;;;;;;3.15;0.60;;;18.30;99.90;;;;;;4985440;28;20293;-62
2023/08/26 10:22:51;;;;;;;5.82;0.98;;;18.20;99.90;;;;;;5011296;28;20472;-62
2023/08/26 10:25:19;;;;;;;2.38;1.17;;;18.10;99.90;;;;;;5026103;28;20055;-61
2023/08/26 10:27:46;;;;;;;2.40;0.80;;;18.00;99.90;;;;;;4995793;28;20049;-61
2023/08/26 10:30:13;;;;;;;2.97;1.05;;;18.00;99.90;;;;;;5029203;28;20045;-62
2023/08/26 10:32:43;;;;;;;2.67;0.77;;;18.10;99.90;;;;;;4995377;28;20261;-61
2023/08/26 10:35:12;;;;;;;2.55;0.90;;;18.10;99.90;;;;;;5025425;28;20072;-61
2023/08/26 10:37:39;;;;;;;1.73;0.70;;;18.20;99.90;;;;;;5028875;28;20059;-63
2023/08/26 10:40:12;;;;;;;1.05;0.60;;;18.40;99.90;;;;;;5028188;28;20052;-62
2023/08/26 10:42:39;;;;;;;1.95;0.93;;;18.40;99.90;;;;;;5028728;28;20053;-62
2023/08/26 10:45:15;;;;;;;1.25;0.73;;;18.40;99.90;;;;;;4994981;28;20464;-61
2023/08/26 10:47:45;;;;;;;3.47;0.98;;;18.40;99.90;;;;;;5028412;28;20128;-61
2023/08/26 10:50:28;;;;;;;4.00;1.23;;;18.40;99.90;;;;;;5027931;28;20083;-62
2023/08/26 10:52:58;;;;;;;4.47;1.08;;;18.50;99.90;;;;;;5026158;28;20041;-61
2023/08/26 10:55:26;;;;;;;5.97;0.95;;;18.70;99.90;;;;;;5026077;28;20064;-63
2023/08/26 10:58:08;;;;;;;4.78;1.20;;;18.90;99.90;;;;;;5027481;28;20049;-63
2023/08/26 11:00:36;;;;;;;4.28;0.65;;;19.10;99.90;;;;;;5028282;28;20056;-63
2023/08/26 11:03:04;;;;;;;4.57;0.85;;;19.10;99.90;;;;;;5010255;28;20045;-63
2023/08/26 11:05:31;;;;;;;1.92;0.90;;;19.10;99.90;;;;;;5008735;28;20115;-63
2023/08/26 11:08:00;;;;;;;4.05;1.13;;;19.20;99.90;;;;;;5027284;28;20045;-63
2023/08/26 11:10:31;;;;;;;2.28;0.75;;;19.10;99.90;;;;;;4994688;28;20045;-62
2023/08/26 11:12:58;;;;;;;2.67;0.80;;;18.90;99.90;;;;;;5027793;28;20057;-62
2023/08/26 11:15:32;;;;;;;3.03;0.77;;;18.70;99.90;;;;;;5027940;28;20053;-63
2023/08/26 11:17:59;;;;;;;;;;;18.40;99.90;;;;;;5028810;28;20056;-63
2023/08/26 11:20:27;;;;;;;3.63;1.02;;;18.10;99.90;;;;;;5027852;28;19972;-62
2023/08/26 11:22:54;;;;;;;2.17;0.60;;;17.90;99.90;;;;;;5010552;28;20042;-61
2023/08/26 11:25:21;;;;;;;3.45;1.05;;;17.70;99.90;;;;;;5027897;28;20053;-63
2023/08/26 11:27:48;;;;;;;1.75;0.90;;;17.60;99.90;;;;;;5027747;28;20452;-63
2023/08/26 11:30:15;;;;;;;2.97;1.30;;;17.60;99.90;;;;;;5010179;28;20504;-63
2023/08/26 11:32:48;;;;;;;4.90;1.20;;;17.60;99.90;;;;;;5027957;28;20042;-63
2023/08/26 11:35:14;;;;;;;4.70;1.53;;;17.60;99.90;;;;;;5009976;28;20508;-63
2023/08/26 11:37:42;;;;;;;2.95;1.38;;;17.60;99.90;;;;;;5010392;28;20048;-63
2023/08/26 11:40:10;;;;;;;4.40;1.58;;;17.60;99.90;;;;;;5027589;28;20061;-63
2023/08/26 11:42:37;;;;;;;3.67;1.02;;;17.70;99.90;;;;;;5028022;28;20053;-63
2023/08/26 11:45:10;;;;;;;2.72;0.90;;;17.60;99.90;;;;;;5017390;28;20076;-62
2023/08/26 11:47:38;;;;;;;5.25;1.30;;;17.60;99.90;;;;;;5027364;28;20512;-63
2023/08/26 11:50:05;;;;;;;1.20;0.63;;;17.50;99.90;;;;;;5027752;28;20049;-62
2023/08/26 11:52:33;;;;;;;3.53;1.02;;;17.50;99.90;;;;;;5027298;28;20099;-63
2023/08/26 11:55:07;;;;;;;1.65;0.63;;;17.60;99.90;;;;;;5028282;28;20108;-62
2023/08/26 11:57:37;;;;;;;;;;;17.80;99.90;;;;;;5028036;28;20060;-63
2023/08/26 12:00:11;;;;;;;1.95;0.75;;;17.90;99.90;;;;;;5025442;28;20065;-62
2023/08/26 12:02:38;;;;;;;1.90;0.90;;;18.10;99.90;;;;;;5027708;28;20037;-63
2023/08/26 12:05:05;;;;;;;1.65;0.98;;;18.20;99.90;;;;;;5027481;28;20048;-63
2023/08/26 12:07:31;;;;;;;1.77;0.77;;;18.30;99.90;;;;;;5011031;28;20068;-63
2023/08/26 12:09:59;;;;;;;0.68;0.47;;;18.50;99.90;;;;;;5013243;28;20087;-60
2023/08/26 12:12:27;;;;;;;8.00;0.98;;;18.80;99.90;;;;;;5013708;28;20049;-63
2023/08/26 12:15:04;;;;;;;2.13;0.80;;;19.10;99.90;;;;;;4997641;28;20447;-63
2023/08/26 12:17:31;;;;;;;1.45;1.08;;;19.40;99.90;;;;;;5022446;28;20056;-62
2023/08/26 12:19:58;;;;;;;6.43;1.40;;;19.50;99.90;;;;;;5031157;28;20085;-62
2023/08/26 12:22:25;;;;;;;1.15;0.85;;;19.70;99.90;;;;;;5031102;28;20493;-62
2023/08/26 12:24:56;;;;;;;5.15;0.82;;;19.90;99.90;;;;;;5031356;28;20052;-63
2023/08/26 12:27:22;;;;;;;1.73;0.57;;;20.10;99.90;;;;;;5031399;28;20042;-63
2023/08/26 12:29:49;;;;;;;4.15;1.00;;;20.10;99.90;;;;;;5031096;28;20041;-65
2023/08/26 12:32:16;;;;;;;2.45;0.75;;;20.20;99.90;;;;;;5031072;28;20103;-62
2023/08/26 12:34:43;;;;;;;2.40;1.20;;;20.30;99.90;;;;;;5030614;28;20095;-62
2023/08/26 12:37:10;;;;;;;3.03;0.85;;;20.40;99.90;;;;;;5030965;28;20267;-63
2023/08/26 12:39:37;;;;;;;2.78;0.60;;;20.30;99.90;;;;;;5031234;28;20041;-62
2023/08/26 12:42:04;;;;;;;2.22;0.82;;;20.30;99.90;;;;;;5031164;28;20049;-63
2023/08/26 12:44:31;;;;;;;2.58;0.60;;;20.10;99.90;;;;;;5030581;28;20115;-62
2023/08/26 12:46:58;;;;;;;1.50;0.73;;;20.00;99.90;;;;;;5031303;28;20046;-61
2023/08/26 12:49:25;;;;;;;1.13;0.73;;;19.80;99.90;;;;;;5030791;28;20049;-61
2023/08/26 12:51:54;;;;;;;1.75;0.77;;;19.60;99.90;;;;;;5033549;28;20103;-61